Sandy Bay Yacht Club
Weather Center


Nearby METAR Reports

Nearby METAR Reports

 

KBVY - Beverly, Massachusetts, USA
Distance from station: WSW 16mi, 26km
Updated: Sat, 16-Jan-2021 8:53pm EST
Few Clouds
Few Clouds
 Wind from W
Wind: W 16 mph , 26 km/h, Gust: 21 mph , 33 km/h
Temperature: 41°F , 5°C
Wind Chill: 33°F , 1°C
Dew Point: 34°F , 1°C
Humidity: 76%
Barometer: 29.23 inHg , 989.8 hPa
Clouds: Few Clouds
Visibility: 10 miles , 16 km
Cloud details: Few Clouds 2100 ft
2021/01/17 01:53 KBVY 170153Z AUTO 26014G18KT 10SM FEW021 05/01 A2923 RMK AO2 SLP893 T00500011 $
KLWM - Lawrence, Massachusetts, USA
Distance from station: W 27mi, 43km
Updated: Sat, 16-Jan-2021 5:54pm EST
NOT Current
Overcast
Overcast
 Wind from W
Wind: W 14 mph , 22 km/h, Gust: 25 mph , 41 km/h
Temperature: 43°F , 6°C
Wind Chill: 36°F , 2°C
Dew Point: 37°F , 3°C
Humidity: 81%
Barometer: 29.25 inHg , 990.5 hPa
Clouds: Overcast
Visibility: 10 miles , 16 km
Cloud details: Overcast 2000 ft
2021/01/16 22:54 KLWM 162254Z 26012G22KT 10SM OVC020 06/03 A2925
 
KBOS - Boston, Massachusetts, USA
Distance from station: SW 29mi, 46km
Updated: Sat, 16-Jan-2021 8:54pm EST
Mostly Cloudy
Mostly Cloudy
 Wind from W
Wind: W 17 mph , 28 km/h, Gust: 26 mph , 43 km/h
Temperature: 39°F , 4°C
Wind Chill: 30°F , -1°C
Dew Point: 32°F , 0°C
Humidity: 75%
Barometer: 29.26 inHg , 990.9 hPa
Clouds: Mostly Cloudy
Visibility: 10 miles , 16 km
Cloud details: Partly Cloudy 2600 ft
Mostly Cloudy 15000 ft
2021/01/17 01:54 KBOS 170154Z 26015G23KT 10SM SCT026 BKN150 04/00 A2926 RMK AO2 PK WND 25027/0114 SLP906 T00440000
KPSM - Portsmouth/Pease, New Hampshire, USA
Distance from station: NNW 30mi, 48km
Updated: Sat, 16-Jan-2021 8:56pm EST
Mostly Cloudy
Mostly Cloudy
 Wind from SW
Wind: SW 9 mph , 15 km/h
Temperature: 41°F , 5°C
Wind Chill: 35°F , 2°C
Dew Point: 36°F , 2°C
Humidity: 81%
Barometer: 29.19 inHg , 988.5 hPa
Clouds: Mostly Cloudy
Visibility: 10 miles , 16 km
Cloud details: Mostly Cloudy 3200 ft
2021/01/17 01:56 KPSM 170156Z 23008KT 10SM BKN032 05/02 A2919 RMK AO2A SLP888 T00480015 RVRNO $
 
KMHT - Manchester, New Hampshire, USA
Distance from station: WNW 46mi, 73km
Updated: Sat, 16-Jan-2021 8:53pm EST
Mostly Cloudy
Mostly Cloudy
 Wind from SW
Wind: SW 8 mph , 13 km/h, Gust: 17 mph , 28 km/h
Temperature: 39°F , 4°C
Wind Chill: 33°F , 1°C
Dew Point: 32°F , 0°C
Humidity: 75%
Barometer: 29.21 inHg , 989.2 hPa
Clouds: Mostly Cloudy
Visibility: 10 miles , 16 km
Cloud details: Mostly Cloudy 5500 ft
Mostly Cloudy 15000 ft
2021/01/17 01:53 KMHT 170153Z 22007G15KT 10SM BKN055 BKN150 04/00 A2921 RMK AO2 SLP908 T00390000
KPVC - Provincetown, Massachusetts, USA
Distance from station: SSE 46mi, 73km
Updated: Sat, 16-Jan-2021 10:44am EST
NOT Current
Light rain, Mist, Overcast
Light rain, Mist, Overcast
 Wind from SE
Wind: SE 20 mph , 31 km/h, Gust: 30 mph , 48 km/h
Temperature: 50°F , 10°C
Wind Chill: 44°F , 7°C
Dew Point: 48°F , 9°C
Humidity: 94%
Barometer: 29.44 inHg , 997 hPa
Summary: Light rain, Mist
Clouds: Overcast
Visibility: 3 miles , 5 km
Cloud details: Overcast 1000 ft
2021/01/16 15:44 KPVC 161544Z AUTO 14017G26KT 3SM -RA BR OVC010 10/09 A2944 RMK AO2 PK WND 12033/1525 CIG 005V013 P0000 $
 
KDAW - Rochester, New Hampshire, USA
Distance from station: NNW 46mi, 74km
Updated: Sat, 16-Jan-2021 9:06pm EST
Partly Cloudy
Partly Cloudy
 Wind from SW
Wind: SW 3 mph , 6 km/h
Temperature: 37°F , 3°C
Dew Point: 36°F , 2°C
Humidity: 93%
Barometer: 29.18 inHg , 988.1 hPa
Clouds: Partly Cloudy
Visibility: 10 miles , 16 km
Cloud details: Few Clouds 1300 ft
Partly Cloudy 2900 ft
2021/01/17 02:06 KDAW 170206Z AUTO 22003KT 10SM FEW013 SCT029 03/02 A2918 RMK AO2 T00330022 $
KASH - Nashua/Boire Fld, New Hampshire, USA
Distance from station: W 47mi, 75km
Updated: Sat, 16-Jan-2021 8:56pm EST
Mostly Cloudy
Mostly Cloudy
 Wind from W
Wind: W 7 mph , 11 km/h
Temperature: 37°F , 3°C
Wind Chill: 32°F , 0°C
Dew Point: 36°F , 2°C
Humidity: 93%
Barometer: 29.24 inHg , 990.2 hPa
Clouds: Mostly Cloudy
Visibility: 10 miles , 16 km
Cloud details: Partly Cloudy 2000 ft
Mostly Cloudy 3500 ft
2021/01/17 01:56 KASH 170156Z 28006KT 10SM SCT020 BKN035 03/02 A2924 RMK AO2 SLP907 T00330017
 
KSFM - Sanford Muni, Maine, USA
Distance from station: N 50mi, 81km
Updated: Sat, 16-Jan-2021 8:56pm EST

 Wind from SW
Wind: SW 8 mph , 13 km/h
Temperature: 39°F , 4°C
Wind Chill: 33°F , 1°C
Dew Point: 37°F , 3°C
Humidity: 93%
Barometer: 29.18 inHg , 988.1 hPa
Visibility: 10 miles , 16 km
2021/01/17 01:56 KSFM 170156Z AUTO 22007KT 10SM 04/03 A2918 RMK AO2 SLP887 T00390028 $

Metar display script from Saratoga-Weather.org

 



home

Copyright © Sandy Bay Yacht Club. All rights reserved.